CheckWX is a tool to help pilots better visualize weather data.  It is not intended as a substitute for an official pre-flight weather briefing.

14:51:48 UTC

KMBS TAF
Mbs International Airport
Saginaw, Michigan, USA
KMBS 231123Z 2312/2412 30006KT P6SM SKC FM231600 28010KT P6SM SKC FM232200 24006KT P6SM SKC

Mar-23@
12:00 UTC

Mar-23 @ 12:00 UTC

Mar-23@
16:00 UTC

Mar-23 @ 16:00 UTC

KMBS 231123Z 2312/2412 30006KT P6SM SKC
Wind
  • 300° at 6 KTS
Cloud Levels
  • Clear skies

Mar-23@
16:00 UTC

Mar-23 @ 16:00 UTC

Mar-23@
22:00 UTC

Mar-23 @ 22:00 UTC

FM231600 28010KT P6SM SKC

From

From Standard forecast or significant change

Wind
  • 280° at 10 KTS
Cloud Levels
  • Clear skies

Mar-23@
22:00 UTC

Mar-23 @ 22:00 UTC

Mar-24@
12:00 UTC

Mar-24 @ 12:00 UTC

FM232200 24006KT P6SM SKC

From

From Standard forecast or significant change

Wind
  • 240° at 6 KTS
Cloud Levels
  • Clear skies